createdAt,value
2022-09-23T00:00:10.298Z,70.94
2022-09-23T00:02:37.407Z,71.42
2022-09-23T00:05:04.224Z,71.17
2022-09-23T00:07:31.475Z,70.95
2022-09-23T00:09:58.382Z,71.10
2022-09-23T00:12:25.270Z,70.26
2022-09-23T00:14:52.078Z,70.92
2022-09-23T00:17:19.263Z,70.05
2022-09-23T00:19:45.976Z,70.44
2022-09-23T00:22:12.893Z,70.70
2022-09-23T00:24:39.626Z,71.04
2022-09-23T00:27:06.395Z,71.07
2022-09-23T00:29:33.647Z,71.10
2022-09-23T00:32:00.345Z,70.46
2022-09-23T00:34:26.990Z,71.02
2022-09-23T00:36:53.668Z,70.33
2022-09-23T00:39:20.419Z,70.88
2022-09-23T00:41:47.231Z,70.66
2022-09-23T00:44:41.793Z,70.86
2022-09-23T00:47:17.580Z,70.17
2022-09-23T00:49:46.875Z,70.02
2022-09-23T00:52:18.022Z,70.84
2022-09-23T00:54:46.991Z,71.33
2022-09-23T00:57:16.646Z,70.49
2022-09-23T00:59:44.210Z,70.09
2022-09-23T01:02:12.464Z,70.28
2022-09-23T01:04:39.356Z,70.20
2022-09-23T01:07:06.443Z,70.49
2022-09-23T01:09:33.179Z,70.78
2022-09-23T01:12:40.522Z,70.60
2022-09-23T01:15:24.786Z,69.93
2022-09-23T01:18:14.830Z,70.31
2022-09-23T01:21:17.097Z,69.73
2022-09-23T01:24:05.617Z,69.74
2022-09-23T01:27:14.458Z,70.39
2022-09-23T01:30:05.479Z,69.54
2022-09-23T01:32:44.378Z,70.52
2022-09-23T01:35:19.669Z,70.34
2022-09-23T01:38:05.111Z,69.73
2022-09-23T01:40:58.145Z,70.59
2022-09-23T01:43:30.525Z,70.10
2022-09-23T01:46:03.796Z,70.08
2022-09-23T01:48:41.972Z,70.05
2022-09-23T01:51:14.731Z,71.33
2022-09-23T01:54:15.474Z,71.77
2022-09-23T01:57:06.560Z,71.31
2022-09-23T01:59:39.629Z,70.82
2022-09-23T02:02:14.313Z,71.03
2022-09-23T02:04:49.842Z,72.01
2022-09-23T02:07:22.033Z,72.26
2022-09-23T02:10:02.713Z,72.18
2022-09-23T02:12:39.944Z,72.30
2022-09-23T02:15:14.932Z,73.60
2022-09-23T02:18:09.324Z,73.89
2022-09-23T02:20:39.944Z,73.92
2022-09-23T02:23:34.877Z,73.11
2022-09-23T02:26:10.831Z,73.09
2022-09-23T02:28:59.327Z,72.38
2022-09-23T02:31:30.810Z,72.81
2022-09-23T02:34:04.861Z,71.60
2022-09-23T02:36:40.083Z,70.93
2022-09-23T02:39:12.473Z,72.08
2022-09-23T02:41:54.471Z,71.75
2022-09-23T02:44:22.220Z,72.32
2022-09-23T02:46:48.848Z,73.99
2022-09-23T02:49:32.422Z,74.85
2022-09-23T02:52:01.921Z,75.98
2022-09-23T02:54:29.301Z,76.33
2022-09-23T02:56:56.329Z,75.78
2022-09-23T02:59:24.190Z,75.35
2022-09-23T03:01:54.045Z,75.77
2022-09-23T03:04:45.955Z,75.39
2022-09-23T03:07:49.539Z,75.21
2022-09-23T03:10:29.729Z,74.74
2022-09-23T03:13:09.286Z,74.66
2022-09-23T03:15:48.701Z,74.06
2022-09-23T03:18:30.842Z,73.28
2022-09-23T03:21:28.762Z,72.45
2022-09-23T03:23:59.955Z,73.03
2022-09-23T03:26:39.633Z,72.12
2022-09-23T03:29:09.744Z,72.50
2022-09-23T03:31:37.978Z,72.43
2022-09-23T03:34:10.269Z,72.67
2022-09-23T03:36:43.303Z,71.57
2022-09-23T03:39:20.225Z,72.00
2022-09-23T03:41:53.086Z,72.28
2022-09-23T03:44:21.166Z,71.87
2022-09-23T03:46:47.804Z,72.72
2022-09-23T03:49:39.516Z,73.11
2022-09-23T03:52:06.760Z,72.35
2022-09-23T03:54:33.817Z,71.85
2022-09-23T03:57:01.618Z,71.47
2022-09-23T03:59:28.895Z,72.64
2022-09-23T04:01:55.749Z,71.97
2022-09-23T04:04:22.509Z,72.13
2022-09-23T04:06:49.132Z,71.51
2022-09-23T04:09:15.844Z,72.41
2022-09-23T04:11:45.177Z,72.11
2022-09-23T04:14:11.829Z,72.21
2022-09-23T04:16:38.819Z,71.99
2022-09-23T04:19:05.720Z,72.43
2022-09-23T04:21:34.396Z,72.20
2022-09-23T04:24:01.299Z,71.76
2022-09-23T04:26:28.069Z,71.19
2022-09-23T04:28:55.331Z,72.22
2022-09-23T04:31:22.184Z,71.93
2022-09-23T04:33:48.942Z,72.01
2022-09-23T04:36:16.203Z,71.66
2022-09-23T04:38:46.337Z,71.23
2022-09-23T04:41:13.503Z,71.63
2022-09-23T04:43:40.520Z,71.56
2022-09-23T04:46:09.315Z,71.51
2022-09-23T04:48:37.440Z,71.16
2022-09-23T04:51:12.117Z,72.05
2022-09-23T04:53:41.187Z,72.18
2022-09-23T04:56:11.031Z,71.70
2022-09-23T04:58:39.181Z,71.88
2022-09-23T05:01:24.116Z,72.80
2022-09-23T05:03:59.400Z,72.21
2022-09-23T05:06:26.108Z,71.76
2022-09-23T05:08:54.877Z,72.33
2022-09-23T05:11:23.411Z,72.03
2022-09-23T05:13:52.666Z,73.11
2022-09-23T05:16:21.024Z,72.65
2022-09-23T05:18:49.063Z,73.31
2022-09-23T05:21:18.080Z,73.26
2022-09-23T05:23:55.676Z,72.60
2022-09-23T05:26:24.821Z,72.45
2022-09-23T05:28:51.444Z,72.17
2022-09-23T05:31:20.989Z,72.44
2022-09-23T05:33:51.519Z,72.63
2022-09-23T05:36:18.726Z,72.71
2022-09-23T05:38:45.351Z,72.31
2022-09-23T05:41:15.957Z,72.90
2022-09-23T05:43:43.328Z,73.52
2022-09-23T05:46:18.847Z,73.27
2022-09-23T05:48:46.064Z,73.17
2022-09-23T05:51:32.560Z,73.92
2022-09-23T05:54:00.440Z,75.21
2022-09-23T05:56:28.215Z,75.78
2022-09-23T05:58:57.565Z,75.61
2022-09-23T06:01:28.631Z,76.14
2022-09-23T06:03:57.600Z,76.22
2022-09-23T06:06:29.167Z,75.66
2022-09-23T06:08:56.659Z,75.34
2022-09-23T06:11:23.230Z,75.43
2022-09-23T06:13:54.778Z,76.35
2022-09-23T06:16:21.532Z,76.48
2022-09-23T06:18:48.144Z,76.57
2022-09-23T06:21:16.812Z,76.12
2022-09-23T06:23:44.400Z,77.19
2022-09-23T06:26:14.242Z,77.56
2022-09-23T06:28:42.559Z,77.76
2022-09-23T06:31:16.811Z,77.46
2022-09-23T06:33:45.334Z,76.68
2022-09-23T06:36:19.106Z,76.38
2022-09-23T06:38:57.942Z,77.09
2022-09-23T06:41:24.583Z,76.65
2022-09-23T06:43:54.279Z,76.64
2022-09-23T06:46:21.817Z,76.64
2022-09-23T06:48:48.542Z,76.48
2022-09-23T06:51:15.241Z,76.50
2022-09-23T06:53:43.573Z,76.28
2022-09-23T06:56:10.934Z,76.44
2022-09-23T06:58:38.221Z,77.43
2022-09-23T07:01:16.725Z,77.56
2022-09-23T07:03:45.052Z,77.84
2022-09-23T07:06:12.095Z,78.15
2022-09-23T07:08:38.974Z,78.75
2022-09-23T07:11:07.347Z,78.62
2022-09-23T07:13:34.267Z,78.42
2022-09-23T07:16:02.280Z,77.57
2022-09-23T07:18:36.760Z,77.29
2022-09-23T07:21:12.623Z,78.28
2022-09-23T07:23:39.246Z,78.38
2022-09-23T07:26:06.060Z,78.36
2022-09-23T07:28:32.783Z,77.49
2022-09-23T07:31:08.202Z,77.83
2022-09-23T07:33:36.974Z,76.31
2022-09-23T07:36:09.947Z,75.85
2022-09-23T07:38:40.391Z,74.96
2022-09-23T07:41:11.422Z,74.39
2022-09-23T07:43:38.822Z,74.97
2022-09-23T07:46:09.020Z,73.15
2022-09-23T07:48:36.696Z,72.52
2022-09-23T07:51:09.362Z,71.45
2022-09-23T07:53:36.729Z,71.59
2022-09-23T07:56:04.003Z,71.79
2022-09-23T07:58:30.923Z,70.69
2022-09-23T08:01:06.369Z,70.32
2022-09-23T08:03:33.435Z,70.44
2022-09-23T08:06:05.115Z,70.97
2022-09-23T08:08:31.816Z,71.72
2022-09-23T08:11:06.501Z,72.42
2022-09-23T08:13:33.438Z,72.71
2022-09-23T08:16:00.369Z,70.19
2022-09-23T08:18:27.445Z,67.10
2022-09-23T08:20:54.082Z,69.60
2022-09-23T08:23:20.768Z,67.60
2022-09-23T08:25:47.861Z,67.61
2022-09-23T08:28:15.506Z,65.68
2022-09-23T08:30:48.859Z,65.51
2022-09-23T08:33:19.655Z,64.14
2022-09-23T08:35:49.595Z,63.31
2022-09-23T08:38:16.274Z,64.34
2022-09-23T08:40:46.857Z,63.98
2022-09-23T08:43:29.831Z,64.06
2022-09-23T08:46:02.080Z,63.67
2022-09-23T08:48:33.270Z,62.58
2022-09-23T08:51:07.234Z,61.48
2022-09-23T08:53:37.041Z,60.07
2022-09-23T08:56:06.969Z,60.16
2022-09-23T08:58:36.606Z,58.13
2022-09-23T09:01:43.996Z,58.45
2022-09-23T09:04:35.101Z,57.45
2022-09-23T09:10:16.428Z,56.98
2022-09-23T09:12:43.483Z,57.61
2022-09-23T09:15:25.174Z,58.45
2022-09-23T09:17:52.099Z,57.50
2022-09-23T09:20:23.727Z,56.62
2022-09-23T09:22:57.124Z,57.19
2022-09-23T09:25:45.677Z,53.84
2022-09-23T09:28:35.201Z,56.08
2022-09-23T09:31:10.436Z,56.54
2022-09-23T09:33:46.753Z,54.34
2022-09-23T09:36:26.061Z,54.29
2022-09-23T09:38:52.927Z,53.85
2022-09-23T09:41:19.657Z,53.65
2022-09-23T09:43:47.846Z,51.59
2022-09-23T09:46:43.889Z,51.58
2022-09-23T09:49:26.046Z,51.18
2022-09-23T09:52:14.459Z,48.08
2022-09-23T09:54:41.079Z,50.46
2022-09-23T09:57:22.214Z,49.59
2022-09-23T09:59:48.845Z,47.86
2022-09-23T10:02:33.943Z,46.18
2022-09-23T10:05:03.665Z,46.67
2022-09-23T10:07:32.399Z,44.69
2022-09-23T10:10:31.706Z,45.66
2022-09-23T10:13:15.213Z,45.30
2022-09-23T10:15:45.438Z,46.54
2022-09-23T10:18:20.713Z,48.27
2022-09-23T10:20:48.423Z,46.35
2022-09-23T10:23:25.238Z,46.03
2022-09-23T10:26:01.481Z,44.32
2022-09-23T10:28:33.019Z,45.15
2022-09-23T10:31:14.722Z,44.86
2022-09-23T10:33:50.676Z,42.36
2022-09-23T10:36:18.603Z,43.56
2022-09-23T10:38:51.008Z,42.53
2022-09-23T10:41:39.850Z,44.62
2022-09-23T10:44:26.709Z,43.43
2022-09-23T10:46:53.398Z,43.28
2022-09-23T10:49:33.109Z,43.27
2022-09-23T10:52:14.930Z,42.72
2022-09-23T10:54:50.618Z,41.75
2022-09-23T10:57:29.468Z,43.32
2022-09-23T11:00:36.944Z,43.14
2022-09-23T11:03:29.965Z,43.90
2022-09-23T11:06:05.480Z,43.03
2022-09-23T11:08:54.849Z,42.57
2022-09-23T11:11:43.346Z,43.25
2022-09-23T11:14:29.520Z,42.72
2022-09-23T11:17:31.715Z,42.40
2022-09-23T11:20:22.951Z,42.32
2022-09-23T11:22:49.602Z,42.37
2022-09-23T11:25:34.645Z,42.17
2022-09-23T11:28:04.405Z,41.45
2022-09-23T11:30:38.933Z,41.39
2022-09-23T11:33:19.914Z,42.91
2022-09-23T11:35:59.135Z,42.36
2022-09-23T11:38:31.746Z,42.29
2022-09-23T11:41:02.735Z,40.80
2022-09-23T11:43:38.325Z,41.52
2022-09-23T11:46:28.910Z,40.41
2022-09-23T11:49:02.468Z,41.42
2022-09-23T11:51:34.299Z,40.89
2022-09-23T11:54:09.384Z,41.86
2022-09-23T11:56:48.406Z,40.05
2022-09-23T11:59:24.080Z,40.29
2022-09-23T12:02:13.140Z,40.67
2022-09-23T12:04:57.036Z,39.05
2022-09-23T12:07:44.023Z,40.57
2022-09-23T12:10:14.449Z,41.11
2022-09-23T12:13:12.312Z,38.54
2022-09-23T12:15:48.040Z,40.20
2022-09-23T12:18:22.837Z,40.66
2022-09-23T12:21:27.138Z,39.30
2022-09-23T12:24:17.114Z,39.12
2022-09-23T12:26:52.870Z,39.75
2022-09-23T12:29:20.380Z,39.54
2022-09-23T12:31:47.439Z,38.92
2022-09-23T12:34:38.057Z,39.63
2022-09-23T12:37:05.738Z,40.26
2022-09-23T12:39:38.313Z,40.84
2022-09-23T12:42:14.068Z,39.32
2022-09-23T12:44:43.006Z,39.21
2022-09-23T12:47:15.848Z,40.69
2022-09-23T12:49:43.805Z,39.12
2022-09-23T12:52:13.345Z,37.25
2022-09-23T12:54:41.441Z,38.64
2022-09-23T12:57:13.555Z,39.36
2022-09-23T13:00:06.384Z,38.56
2022-09-23T13:02:38.335Z,40.22
2022-09-23T13:05:08.195Z,38.61
2022-09-23T13:07:34.896Z,37.37
2022-09-23T13:10:22.815Z,37.41
2022-09-23T13:12:51.138Z,37.19
2022-09-23T13:15:32.612Z,38.81
2022-09-23T13:18:47.369Z,37.88
2022-09-23T13:21:38.664Z,36.90
2022-09-23T13:24:40.979Z,38.18
2022-09-23T13:27:19.678Z,39.75
2022-09-23T13:30:00.127Z,41.00
2022-09-23T13:32:31.110Z,40.00
2022-09-23T13:35:05.577Z,38.61
2022-09-23T13:37:38.385Z,36.57
2022-09-23T13:40:28.293Z,36.69
2022-09-23T13:43:00.754Z,38.17
2022-09-23T13:45:29.323Z,36.40
2022-09-23T13:48:02.361Z,38.48
2022-09-23T13:50:32.897Z,37.67
2022-09-23T13:53:05.994Z,35.81
2022-09-23T13:55:35.696Z,40.35
2022-09-23T13:58:20.993Z,42.11
2022-09-23T14:00:49.345Z,38.81
2022-09-23T14:03:36.902Z,38.13
2022-09-23T14:06:10.951Z,40.20
2022-09-23T14:08:51.049Z,39.18
2022-09-23T14:11:28.043Z,38.47
2022-09-23T14:13:55.544Z,41.54
2022-09-23T14:16:24.973Z,41.60
2022-09-23T14:18:56.270Z,40.78
2022-09-23T14:21:31.180Z,36.29
2022-09-23T14:24:12.148Z,41.63
2022-09-23T14:26:40.133Z,40.00
2022-09-23T14:29:16.068Z,38.98
2022-09-23T14:31:46.736Z,41.19
2022-09-23T14:34:47.341Z,38.47
2022-09-23T14:37:36.145Z,38.83
2022-09-23T14:40:09.089Z,38.57
2022-09-23T14:42:42.518Z,37.98
2022-09-23T14:45:14.441Z,40.06
2022-09-23T14:47:46.313Z,37.69
2022-09-23T14:50:25.600Z,40.02
2022-09-23T14:52:52.314Z,37.07
2022-09-23T14:55:19.002Z,38.13
2022-09-23T14:57:46.126Z,38.30
2022-09-23T15:00:19.001Z,37.89
2022-09-23T15:02:58.825Z,37.55
2022-09-23T15:05:44.326Z,38.51
2022-09-23T15:08:17.702Z,38.86
2022-09-23T15:10:45.112Z,39.83
2022-09-23T15:13:22.303Z,38.01
2022-09-23T15:15:52.571Z,40.22
2022-09-23T15:18:22.140Z,41.42
2022-09-23T15:20:51.307Z,41.47
2022-09-23T15:23:36.174Z,40.40
2022-09-23T15:26:07.498Z,39.85
2022-09-23T15:28:34.766Z,39.35
2022-09-23T15:31:01.835Z,40.75
2022-09-23T15:33:29.131Z,41.09
2022-09-23T15:35:56.038Z,39.72
2022-09-23T15:38:22.926Z,40.08
2022-09-23T15:40:50.272Z,40.17
2022-09-23T15:43:22.420Z,41.53
2022-09-23T15:45:51.542Z,40.32
2022-09-23T15:48:22.629Z,41.46
2022-09-23T15:50:50.850Z,41.11
2022-09-23T15:53:20.613Z,41.47
2022-09-23T15:55:48.093Z,41.81
2022-09-23T15:58:14.712Z,42.44
2022-09-23T16:00:41.607Z,41.25
2022-09-23T16:03:13.518Z,42.67
2022-09-23T16:05:46.852Z,43.28
2022-09-23T16:08:13.771Z,43.85
2022-09-23T16:10:44.370Z,43.92
2022-09-23T16:13:13.687Z,44.24
2022-09-23T16:15:41.017Z,43.99
2022-09-23T16:18:11.718Z,43.89
2022-09-23T16:20:41.856Z,43.58
2022-09-23T16:23:23.708Z,43.95
2022-09-23T16:25:52.217Z,44.03
2022-09-23T16:28:18.954Z,44.39
2022-09-23T16:30:45.563Z,44.70
2022-09-23T16:33:12.251Z,45.06
2022-09-23T16:35:39.323Z,45.15
2022-09-23T16:38:08.199Z,45.17
2022-09-23T16:40:35.196Z,45.92
2022-09-23T16:43:06.510Z,46.14
2022-09-23T16:45:34.202Z,46.26
2022-09-23T16:48:01.028Z,46.42
2022-09-23T16:50:30.316Z,46.75
2022-09-23T16:52:57.417Z,46.75
2022-09-23T16:55:27.313Z,46.79
2022-09-23T16:57:57.224Z,47.31
2022-09-23T17:00:24.414Z,47.72
2022-09-23T17:02:51.731Z,48.26
2022-09-23T17:05:20.565Z,48.04
2022-09-23T17:07:47.649Z,48.69
2022-09-23T17:10:16.468Z,48.93
2022-09-23T17:12:44.917Z,49.25
2022-09-23T17:15:13.079Z,49.47
2022-09-23T17:17:41.043Z,49.44
2022-09-23T17:20:10.142Z,49.37
2022-09-23T17:22:37.556Z,49.63
2022-09-23T17:25:05.419Z,49.97
2022-09-23T17:27:33.299Z,50.08
2022-09-23T17:30:01.374Z,50.56
2022-09-23T17:32:28.721Z,51.27
2022-09-23T17:34:59.225Z,51.71
2022-09-23T17:37:26.304Z,51.64
2022-09-23T17:39:56.919Z,52.49
2022-09-23T17:42:24.346Z,52.72
2022-09-23T17:44:52.153Z,52.83
2022-09-23T17:47:19.436Z,52.79
2022-09-23T17:49:46.788Z,53.17
2022-09-23T17:52:16.517Z,53.30
2022-09-23T17:54:44.986Z,53.15
2022-09-23T17:57:12.465Z,53.06
2022-09-23T17:59:39.602Z,53.37
2022-09-23T18:02:14.943Z,52.80
2022-09-23T18:04:42.878Z,52.88
2022-09-23T18:07:09.998Z,53.07
2022-09-23T18:09:38.090Z,53.10
2022-09-23T18:12:04.749Z,52.40
2022-09-23T18:14:31.464Z,52.85
2022-09-23T18:16:58.060Z,53.30
2022-09-23T18:19:24.972Z,53.42
2022-09-23T18:21:54.540Z,54.08
2022-09-23T18:24:31.876Z,53.82
2022-09-23T18:26:59.021Z,53.74
2022-09-23T18:29:26.127Z,54.38
2022-09-23T18:31:52.969Z,54.26
2022-09-23T18:34:20.049Z,54.71
2022-09-23T18:36:47.212Z,54.74
2022-09-23T18:39:14.449Z,55.20
2022-09-23T18:41:41.290Z,55.52
2022-09-23T18:44:08.821Z,56.03
2022-09-23T18:46:35.940Z,56.56
2022-09-23T18:49:02.771Z,57.30
2022-09-23T18:51:30.715Z,57.54
2022-09-23T18:54:01.736Z,57.22
2022-09-23T18:56:33.917Z,57.33
2022-09-23T18:59:00.774Z,57.70
2022-09-23T19:01:27.665Z,57.81
2022-09-23T19:03:58.729Z,57.47
2022-09-23T19:06:26.018Z,57.34
2022-09-23T19:08:55.799Z,57.77
2022-09-23T19:11:24.784Z,58.05
2022-09-23T19:13:55.685Z,58.14
2022-09-23T19:16:23.918Z,58.64
2022-09-23T19:18:51.577Z,58.66
2022-09-23T19:21:21.871Z,59.08
2022-09-23T19:23:51.691Z,58.84
2022-09-23T19:26:24.922Z,59.76
2022-09-23T19:28:56.698Z,59.57
2022-09-23T19:31:29.571Z,59.80
2022-09-23T19:34:00.577Z,60.57
2022-09-23T19:36:30.510Z,60.82
2022-09-23T19:39:01.852Z,60.97
2022-09-23T19:41:32.934Z,61.22
2022-09-23T19:44:01.210Z,61.56
2022-09-23T19:46:28.331Z,61.42
2022-09-23T19:48:55.218Z,61.97
2022-09-23T19:51:21.987Z,61.68
2022-09-23T19:53:49.070Z,61.40
2022-09-23T19:56:16.340Z,61.63
2022-09-23T19:58:45.158Z,61.44
2022-09-23T20:01:14.829Z,61.56
2022-09-23T20:03:43.496Z,61.87
2022-09-23T20:06:11.246Z,61.40
2022-09-23T20:08:42.645Z,61.90
2022-09-23T20:11:12.181Z,61.51
2022-09-23T20:13:44.771Z,62.12
2022-09-23T20:16:19.949Z,62.16
2022-09-23T20:18:52.670Z,62.58
2022-09-23T20:21:23.122Z,62.83
2022-09-23T20:23:51.427Z,62.30
2022-09-23T20:26:21.087Z,62.02
2022-09-23T20:28:48.426Z,61.22
2022-09-23T20:31:17.246Z,61.66
2022-09-23T20:33:44.522Z,61.40
2022-09-23T20:36:13.914Z,61.43
2022-09-23T20:38:42.747Z,61.96
2022-09-23T20:41:09.976Z,62.38
2022-09-23T20:43:37.309Z,62.66
2022-09-23T20:46:05.283Z,62.49
2022-09-23T20:48:33.727Z,62.48
2022-09-23T20:51:02.181Z,62.34
2022-09-23T20:53:30.016Z,62.13
2022-09-23T20:55:57.672Z,62.44
2022-09-23T20:58:31.222Z,62.87
2022-09-23T21:01:06.524Z,62.55
2022-09-23T21:03:35.003Z,63.29
2022-09-23T21:06:03.085Z,63.48
2022-09-23T21:08:32.309Z,63.88
2022-09-23T21:11:02.071Z,63.60
2022-09-23T21:13:30.530Z,64.58
2022-09-23T21:16:03.844Z,64.50
2022-09-23T21:18:32.042Z,63.70
2022-09-23T21:21:00.326Z,64.00
2022-09-23T21:23:29.757Z,64.47
2022-09-23T21:26:04.063Z,64.98
2022-09-23T21:28:36.647Z,65.28
2022-09-23T21:31:07.508Z,65.20
2022-09-23T21:33:35.100Z,64.49
2022-09-23T21:36:02.659Z,64.00
2022-09-23T21:38:31.101Z,63.69
2022-09-23T21:40:59.468Z,63.79
2022-09-23T21:43:30.645Z,64.02
2022-09-23T21:45:59.465Z,64.13
2022-09-23T21:48:32.399Z,64.11
2022-09-23T21:51:01.911Z,63.53
2022-09-23T21:53:32.754Z,63.05
2022-09-23T21:56:09.090Z,63.05
2022-09-23T21:58:38.532Z,63.24
2022-09-23T22:01:14.742Z,63.52
2022-09-23T22:03:43.204Z,63.98
2022-09-23T22:06:12.254Z,63.42
2022-09-23T22:08:42.832Z,63.79
2022-09-23T22:11:15.877Z,64.81
2022-09-23T22:13:43.664Z,64.92
2022-09-23T22:16:10.805Z,65.09
2022-09-23T22:18:38.203Z,65.11
2022-09-23T22:21:05.408Z,65.21
2022-09-23T22:23:33.651Z,65.87
2022-09-23T22:26:03.257Z,65.89
2022-09-23T22:28:32.561Z,66.03
2022-09-23T22:30:59.326Z,66.41
2022-09-23T22:33:26.229Z,65.81
2022-09-23T22:36:00.456Z,65.67
2022-09-23T22:38:27.104Z,65.43
2022-09-23T22:40:53.888Z,64.76
2022-09-23T22:43:20.543Z,64.87
2022-09-23T22:45:51.175Z,65.01
2022-09-23T22:48:18.206Z,64.95
2022-09-23T22:50:44.987Z,65.25
2022-09-23T22:53:12.163Z,65.46
2022-09-23T22:55:38.824Z,65.92
2022-09-23T22:58:27.674Z,66.53
2022-09-23T23:00:55.441Z,66.16
2022-09-23T23:03:22.286Z,66.10
2022-09-23T23:05:49.095Z,66.04
2022-09-23T23:08:15.741Z,66.19
2022-09-23T23:10:43.142Z,66.82
2022-09-23T23:13:10.207Z,66.52
2022-09-23T23:15:40.171Z,65.79
2022-09-23T23:18:06.799Z,65.94
2022-09-23T23:20:33.592Z,66.24
2022-09-23T23:23:01.445Z,66.58
2022-09-23T23:25:28.686Z,65.94
2022-09-23T23:27:55.861Z,66.29
2022-09-23T23:30:23.348Z,66.99
2022-09-23T23:32:50.000Z,67.31
2022-09-23T23:35:16.931Z,67.67
2022-09-23T23:37:43.602Z,68.56
2022-09-23T23:40:36.133Z,68.64
2022-09-23T23:43:02.936Z,68.66
2022-09-23T23:45:29.534Z,68.97
2022-09-23T23:47:56.258Z,69.05
2022-09-23T23:50:22.938Z,68.68
2022-09-23T23:52:49.623Z,68.88
2022-09-23T23:55:16.371Z,69.01
2022-09-23T23:57:43.085Z,70.35
